Time;durP1;ratioP1;P1;durP2;ratioP2;P2;SDS_P1;SDS_P2;PMS_P1;PMS_P2;Temp;Humidity;BMP_temperature;BMP_pressure;BME280_temperature;BME280_humidity;BME280_pressure;Samples;Min_cycle;Max_cycle;Signal;HPM_P1;HPM_P2
2023/05/26 00:00:12;;;;;;;0.00;0.00;;;;;;;11.60;65.75;101785.19;6140287;22;20010;-70
2023/05/26 00:02:39;;;;;;;0.00;0.00;;;;;;;11.58;66.06;101781.88;6116028;23;20005;-72
2023/05/26 00:05:06;;;;;;;0.00;0.00;;;;;;;11.56;66.03;101794.97;6136951;23;20010;-72
2023/05/26 00:07:32;;;;;;;0.00;0.00;;;;;;;11.49;66.27;101778.69;6092312;23;20017;-72
2023/05/26 00:09:58;;;;;;;0.00;0.00;;;;;;;11.50;65.86;101790.44;6136597;23;20001;-71
2023/05/26 00:12:23;;;;;;;0.00;0.00;;;;;;;11.41;66.57;101786.41;6141660;23;20009;-72
2023/05/26 00:14:48;;;;;;;0.00;0.00;;;;;;;11.41;66.40;101786.41;6218378;23;20006;-73
2023/05/26 00:17:16;;;;;;;0.00;0.00;;;;;;;11.32;66.77;101784.03;6138840;23;20013;-72
2023/05/26 00:19:42;;;;;;;0.00;0.00;;;;;;;11.29;66.96;101784.50;6242811;22;20016;-72
2023/05/26 00:22:08;;;;;;;0.00;0.00;;;;;;;11.32;66.80;101792.25;6112548;23;20810;-71
2023/05/26 00:24:33;;;;;;;0.00;0.00;;;;;;;11.26;67.36;101787.72;6091750;23;20436;-71
2023/05/26 00:26:59;;;;;;;0.00;0.00;;;;;;;11.26;67.59;101795.94;6136126;23;20082;-72
2023/05/26 00:29:24;;;;;;;0.00;0.00;;;;;;;11.20;67.25;101794.16;6140376;23;20098;-72
2023/05/26 00:31:50;;;;;;;0.00;0.00;;;;;;;11.15;67.26;101797.56;6143126;22;20109;-73
2023/05/26 00:34:15;;;;;;;0.00;0.00;;;;;;;11.05;67.67;101794.59;6241366;22;20025;-73
2023/05/26 00:36:42;;;;;;;0.00;0.00;;;;;;;11.06;67.97;101795.44;6218628;23;20638;-72
2023/05/26 00:39:07;;;;;;;0.00;0.00;;;;;;;10.97;67.60;101793.03;6141702;22;20052;-72
2023/05/26 00:41:33;;;;;;;0.05;0.05;;;;;;;10.90;68.20;101789.56;6138047;23;20013;-73
2023/05/26 00:43:58;;;;;;;0.00;0.00;;;;;;;10.81;68.25;101794.53;6117766;23;20454;-73
2023/05/26 00:46:23;;;;;;;0.00;0.00;;;;;;;10.83;68.83;101786.09;6110228;23;20099;-71
2023/05/26 00:48:49;;;;;;;0.00;0.00;;;;;;;10.80;68.81;101786.56;6110482;23;20009;-71
2023/05/26 00:51:14;;;;;;;0.00;0.00;;;;;;;10.76;68.73;101788.09;6243894;22;20658;-71
2023/05/26 00:53:43;;;;;;;0.00;0.00;;;;;;;10.76;68.70;101790.84;6116794;23;20021;-71
2023/05/26 00:56:11;;;;;;;0.00;0.00;;;;;;;10.71;68.59;101790.72;6115923;23;20013;-72
2023/05/26 00:58:37;;;;;;;0.00;0.00;;;;;;;10.67;69.16;101787.59;6111873;23;20024;-72
2023/05/26 01:01:02;;;;;;;0.00;0.00;;;;;;;10.59;69.65;101780.56;6245535;22;20006;-72
2023/05/26 01:03:28;;;;;;;0.00;0.00;;;;;;;10.52;69.42;101779.00;6139449;23;20080;-72
2023/05/26 01:05:54;;;;;;;0.00;0.00;;;;;;;10.48;69.73;101790.41;6140866;23;20013;-72
2023/05/26 01:08:20;;;;;;;0.00;0.00;;;;;;;10.40;69.70;101779.78;6137529;23;20009;-71
2023/05/26 01:10:45;;;;;;;0.00;0.00;;;;;;;10.34;70.17;101785.34;6115524;23;20041;-72
2023/05/26 01:13:22;;;;;;;0.00;0.00;;;;;;;10.31;70.72;101784.72;6220294;23;20001;-72
2023/05/26 01:15:51;;;;;;;0.05;0.05;;;;;;;10.26;70.98;101781.81;6140171;23;20009;-72
2023/05/26 01:18:28;;;;;;;0.00;0.00;;;;;;;10.20;71.38;101784.66;6115425;23;20374;-72
2023/05/26 01:21:27;;;;;;;0.00;0.00;;;;;;;10.15;71.19;101785.34;6138978;23;20013;-72
2023/05/26 01:24:18;;;;;;;0.00;0.00;;;;;;;10.12;71.74;101794.03;6139058;23;20376;-72
2023/05/26 01:26:58;;;;;;;0.00;0.00;;;;;;;10.09;72.39;101786.25;6116614;23;20067;-73
2023/05/26 01:29:27;;;;;;;0.00;0.00;;;;;;;10.02;72.60;101785.53;6116192;23;20009;-73
2023/05/26 01:31:53;;;;;;;0.00;0.00;;;;;;;10.03;72.77;101788.03;6142127;22;20092;-73
2023/05/26 01:34:18;;;;;;;0.00;0.00;;;;;;;10.02;73.02;101793.72;6191882;23;20093;-73
2023/05/26 01:36:43;;;;;;;0.00;0.00;;;;;;;9.93;73.06;101785.81;6087099;23;20471;-72
2023/05/26 01:39:10;;;;;;;0.00;0.00;;;;;;;9.88;73.52;101780.19;6222846;23;20074;-72
2023/05/26 01:42:27;;;;;;;0.00;0.00;;;;;;;9.87;73.58;101783.16;6111472;23;20085;-74
2023/05/26 01:45:03;;;;;;;0.00;0.00;;;;;;;9.86;73.98;101779.59;6138289;23;20014;-73
2023/05/26 01:47:31;;;;;;;0.00;0.00;;;;;;;9.89;73.78;101776.41;6139047;23;20037;-72
2023/05/26 01:50:01;;;;;;;0.00;0.00;;;;;;;9.90;73.92;101775.34;6135704;23;20165;-72
2023/05/26 01:52:27;;;;;;;0.00;0.00;;;;;;;9.92;74.21;101781.41;6115708;23;20070;-72
2023/05/26 01:54:57;;;;;;;0.00;0.00;;;;;;;9.88;73.82;101774.72;6139736;23;20009;-72
2023/05/26 01:57:25;;;;;;;0.00;0.00;;;;;;;9.86;74.30;101782.34;6113369;23;20089;-71
2023/05/26 01:59:53;;;;;;;0.00;0.00;;;;;;;9.82;74.44;101783.84;6137477;23;20014;-72
2023/05/26 02:02:18;;;;;;;0.00;0.00;;;;;;;9.77;74.58;101780.97;6112814;23;20066;-72
2023/05/26 02:04:44;;;;;;;0.00;0.00;;;;;;;9.70;75.22;101782.94;6219130;23;20014;-72
2023/05/26 02:07:09;;;;;;;0.00;0.00;;;;;;;9.66;75.53;101776.25;6134051;23;20066;-72
2023/05/26 02:09:36;;;;;;;0.00;0.00;;;;;;;9.69;75.42;101781.28;6141673;23;20009;-72
2023/05/26 02:12:03;;;;;;;0.00;0.00;;;;;;;9.63;75.79;101776.72;6214407;23;20355;-73
2023/05/26 02:14:28;;;;;;;0.00;0.00;;;;;;;9.61;75.88;101780.50;6141231;23;20293;-72
2023/05/26 02:16:54;;;;;;;0.00;0.00;;;;;;;9.64;76.08;101778.38;6241851;22;20021;-72
2023/05/26 02:19:20;;;;;;;0.00;0.00;;;;;;;9.72;76.13;101778.91;6135542;22;20020;-72
2023/05/26 02:21:45;;;;;;;0.00;0.00;;;;;;;9.65;75.88;101777.31;6118040;23;20105;-72
2023/05/26 02:24:11;;;;;;;0.00;0.00;;;;;;;9.70;76.16;101793.88;6210509;23;20087;-71
2023/05/26 02:26:37;;;;;;;0.00;0.00;;;;;;;9.71;75.89;101780.00;6119418;23;20018;-72
2023/05/26 02:29:03;;;;;;;0.00;0.00;;;;;;;9.73;75.58;101777.03;6084622;23;20017;-72
2023/05/26 02:31:31;;;;;;;0.00;0.00;;;;;;;9.74;76.01;101778.72;6240629;22;20063;-73
2023/05/26 02:33:56;;;;;;;0.00;0.00;;;;;;;9.70;75.76;101778.31;6118008;22;20376;-73
2023/05/26 02:36:22;;;;;;;0.00;0.00;;;;;;;9.69;75.80;101776.63;6185493;23;20040;-72
2023/05/26 02:38:47;;;;;;;0.00;0.00;;;;;;;9.64;75.13;101776.50;6247201;22;20016;-72
2023/05/26 02:41:13;;;;;;;0.00;0.00;;;;;;;9.59;75.58;101777.19;6215012;23;20010;-72
2023/05/26 02:43:39;;;;;;;0.00;0.00;;;;;;;9.68;76.31;101782.31;6094243;23;20009;-71
2023/05/26 02:46:05;;;;;;;0.00;0.00;;;;;;;9.74;75.88;101786.91;6137952;23;20055;-71
2023/05/26 02:48:30;;;;;;;0.00;0.00;;;;;;;9.72;75.42;101794.47;6109304;23;20009;-72
2023/05/26 02:50:59;;;;;;;0.00;0.00;;;;;;;9.60;75.92;101778.81;6116688;23;20137;-73
2023/05/26 02:53:24;;;;;;;0.00;0.00;;;;;;;9.57;75.56;101784.75;6233286;22;20020;-71
2023/05/26 02:55:50;;;;;;;0.00;0.00;;;;;;;9.49;75.21;101779.59;6117257;23;20010;-72
2023/05/26 02:58:15;;;;;;;0.00;0.00;;;;;;;9.46;75.73;101784.66;6135558;22;20006;-72
2023/05/26 03:00:40;;;;;;;0.00;0.00;;;;;;;9.43;75.31;101788.66;6239561;22;20006;-71
2023/05/26 03:03:06;;;;;;;0.00;0.00;;;;;;;9.38;75.05;101780.34;6114697;23;20096;-71
2023/05/26 03:05:32;;;;;;;0.00;0.00;;;;;;;9.32;75.71;101778.50;6239146;22;20006;-72
2023/05/26 03:07:58;;;;;;;0.00;0.00;;;;;;;9.23;75.57;101778.78;6144458;23;20013;-72
2023/05/26 03:10:23;;;;;;;0.00;0.00;;;;;;;9.21;76.13;101783.66;6136624;23;20001;-73
2023/05/26 03:12:49;;;;;;;0.00;0.00;;;;;;;9.28;75.68;101782.75;6137733;23;20055;-71
2023/05/26 03:15:14;;;;;;;0.00;0.00;;;;;;;9.22;75.99;101782.56;6110661;23;20041;-72
2023/05/26 03:17:40;;;;;;;0.00;0.00;;;;;;;9.16;76.19;101783.47;6142362;23;20033;-72
2023/05/26 03:20:06;;;;;;;0.00;0.00;;;;;;;9.02;76.37;101766.38;6246101;22;20021;-72
2023/05/26 03:22:31;;;;;;;0.00;0.00;;;;;;;9.03;76.46;101773.50;6211938;23;20021;-72
2023/05/26 03:24:57;;;;;;;0.00;0.00;;;;;;;9.00;76.15;101778.56;6246360;22;20101;-72
2023/05/26 03:27:23;;;;;;;0.00;0.00;;;;;;;8.92;76.32;101782.38;6133138;23;20297;-72
2023/05/26 03:29:50;;;;;;;0.00;0.00;;;;;;;8.91;76.39;101786.19;6218584;23;20063;-73
2023/05/26 03:32:16;;;;;;;0.00;0.00;;;;;;;8.93;76.64;101783.25;6231561;22;20053;-71
2023/05/26 03:34:41;;;;;;;0.00;0.00;;;;;;;8.96;76.51;101782.78;6112580;23;20021;-72
2023/05/26 03:37:07;;;;;;;0.00;0.00;;;;;;;8.91;76.88;101787.00;6211147;23;20025;-72
2023/05/26 03:39:33;;;;;;;0.00;0.00;;;;;;;8.90;76.74;101785.34;6209873;23;20198;-72
2023/05/26 03:41:59;;;;;;;0.00;0.00;;;;;;;8.92;76.69;101782.38;6109769;23;20416;-71
2023/05/26 03:44:25;;;;;;;0.00;0.00;;;;;;;8.98;76.73;101791.59;6229945;22;20013;-71
2023/05/26 03:46:50;;;;;;;0.00;0.00;;;;;;;8.93;76.09;101794.16;6106420;23;20376;-72
2023/05/26 03:49:16;;;;;;;0.00;0.00;;;;;;;8.91;76.27;101791.66;6239865;22;20044;-72
2023/05/26 03:51:41;;;;;;;0.00;0.00;;;;;;;8.83;76.50;101783.72;6232763;22;20051;-72
2023/05/26 03:54:07;;;;;;;0.00;0.00;;;;;;;8.78;76.33;101792.56;6216686;23;20013;-70
2023/05/26 03:56:32;;;;;;;0.00;0.00;;;;;;;8.70;76.83;101787.38;6108153;23;20013;-72
2023/05/26 03:58:58;;;;;;;0.00;0.00;;;;;;;8.67;77.19;101793.28;6212345;23;20101;-72
2023/05/26 04:01:25;;;;;;;0.00;0.00;;;;;;;8.70;76.89;101801.88;6107286;23;20010;-71
2023/05/26 04:03:50;;;;;;;0.00;0.00;;;;;;;8.71;77.01;101786.31;6108555;23;20014;-72
2023/05/26 04:06:16;;;;;;;0.00;0.00;;;;;;;8.72;76.98;101791.56;6239925;22;20071;-71
2023/05/26 04:08:42;;;;;;;0.00;0.00;;;;;;;8.73;76.69;101789.66;6103371;23;20014;-71
2023/05/26 04:11:07;;;;;;;0.00;0.00;;;;;;;8.73;77.39;101795.13;6107236;23;19998;-72
2023/05/26 04:13:38;;;;;;;0.00;0.00;;;;;;;8.71;76.92;101792.59;6111463;23;20075;-71
2023/05/26 04:16:04;;;;;;;0.00;0.00;;;;;;;8.67;77.16;101788.69;6107459;23;20010;-72
2023/05/26 04:18:29;;;;;;;0.00;0.00;;;;;;;8.73;77.54;101800.56;6109962;23;20032;-73
2023/05/26 04:20:55;;;;;;;0.00;0.00;;;;;;;8.72;77.19;101793.47;6109815;23;20421;-73
2023/05/26 04:23:20;;;;;;;0.00;0.00;;;;;;;8.72;77.06;101793.47;6239437;22;20037;-72
2023/05/26 04:25:45;;;;;;;0.08;0.08;;;;;;;8.73;77.11;101797.84;6108615;23;20010;-72
2023/05/26 04:28:11;;;;;;;0.00;0.00;;;;;;;8.74;76.67;101800.34;6107040;23;20100;-72
2023/05/26 04:30:39;;;;;;;0.00;0.00;;;;;;;8.74;76.76;101797.63;6080797;23;20014;-71
2023/05/26 04:33:09;;;;;;;0.00;0.00;;;;;;;8.70;77.48;101796.41;6091171;22;20049;-71
2023/05/26 04:35:34;;;;;;;0.00;0.00;;;;;;;8.70;77.38;101810.06;6053448;23;20043;-71
2023/05/26 04:38:00;;;;;;;0.00;0.00;;;;;;;8.68;77.44;101814.03;6079788;23;20452;-72
2023/05/26 04:40:25;;;;;;;0.00;0.00;;;;;;;8.67;77.96;101813.22;6084039;23;20076;-72
2023/05/26 04:42:51;;;;;;;0.00;0.00;;;;;;;8.70;77.41;101822.81;6054412;23;20014;-72
2023/05/26 04:45:17;;;;;;;0.00;0.00;;;;;;;8.69;77.35;101810.28;6076291;23;20410;-73
2023/05/26 04:47:42;;;;;;;0.00;0.00;;;;;;;8.73;77.23;101816.94;6054804;23;20083;-72
2023/05/26 04:50:12;;;;;;;0.00;0.00;;;;;;;8.77;78.09;101828.25;6074053;23;20130;-72
2023/05/26 04:52:44;;;;;;;0.00;0.00;;;;;;;8.82;77.58;101826.53;6083288;23;20014;-72
2023/05/26 04:55:09;;;;;;;0.00;0.00;;;;;;;8.95;77.30;101819.31;6077229;23;20057;-72
2023/05/26 04:57:35;;;;;;;0.00;0.00;;;;;;;9.02;77.15;101837.31;6034678;23;20011;-72
2023/05/26 05:00:00;;;;;;;0.00;0.00;;;;;;;9.09;77.42;101826.34;6048303;23;20015;-72
2023/05/26 05:02:26;;;;;;;0.00;0.00;;;;;;;9.18;77.05;101835.91;6078793;23;20406;-72
2023/05/26 05:04:52;;;;;;;0.00;0.00;;;;;;;9.23;77.01;101844.28;6080760;23;20052;-72
2023/05/26 05:07:17;;;;;;;0.00;0.00;;;;;;;9.25;76.94;101839.44;6077521;23;20010;-72
2023/05/26 05:09:43;;;;;;;0.00;0.00;;;;;;;9.23;76.79;101832.53;6079698;23;20002;-72
2023/05/26 05:12:09;;;;;;;0.00;0.00;;;;;;;9.36;76.67;101842.50;6077157;23;20018;-72
2023/05/26 05:14:34;;;;;;;0.00;0.00;;;;;;;9.39;76.35;101839.34;6080511;23;20053;-72
2023/05/26 05:17:00;;;;;;;0.00;0.00;;;;;;;9.40;76.45;101833.66;6052864;23;20018;-71
2023/05/26 05:19:26;;;;;;;0.00;0.00;;;;;;;9.48;76.25;101850.81;6056216;23;20081;-71
2023/05/26 05:21:51;;;;;;;0.00;0.00;;;;;;;9.53;76.08;101838.13;6076833;23;20014;-71
2023/05/26 05:24:17;;;;;;;0.00;0.00;;;;;;;9.67;76.37;101843.50;6079570;23;20436;-72
2023/05/26 05:26:42;;;;;;;0.00;0.00;;;;;;;9.76;76.04;101836.66;6076918;23;20101;-71
2023/05/26 05:29:08;;;;;;;0.00;0.00;;;;;;;9.89;75.44;101842.00;6078321;23;20083;-71
2023/05/26 05:31:33;;;;;;;0.00;0.00;;;;;;;9.98;75.50;101855.38;6076295;23;20446;-71
2023/05/26 05:33:59;;;;;;;0.00;0.00;;;;;;;10.09;75.49;101851.84;6103053;22;20101;-72
2023/05/26 05:36:24;;;;;;;0.00;0.00;;;;;;;10.22;74.81;101848.13;6113948;23;20029;-71
2023/05/26 05:38:50;;;;;;;0.00;0.00;;;;;;;10.30;74.64;101856.84;6104345;23;20009;-73
2023/05/26 05:41:15;;;;;;;0.00;0.00;;;;;;;10.45;74.36;101856.53;6107932;23;20006;-72
2023/05/26 05:43:41;;;;;;;0.00;0.00;;;;;;;10.52;73.68;101850.94;6111657;23;20010;-71
2023/05/26 05:46:06;;;;;;;0.03;0.03;;;;;;;10.58;73.67;101850.00;6080775;23;20325;-70
2023/05/26 05:48:32;;;;;;;0.00;0.00;;;;;;;10.72;73.23;101855.28;6084092;23;20557;-73
2023/05/26 05:50:57;;;;;;;0.00;0.00;;;;;;;10.82;73.23;101858.34;6115555;23;20491;-72
2023/05/26 05:53:23;;;;;;;0.00;0.00;;;;;;;10.96;72.60;101853.47;6104438;23;20013;-72
2023/05/26 05:55:48;;;;;;;0.00;0.00;;;;;;;11.15;72.08;101859.72;6091144;23;20013;-72
2023/05/26 05:58:14;;;;;;;0.00;0.00;;;;;;;11.35;71.80;101862.16;6077842;23;20007;-73
2023/05/26 06:00:40;;;;;;;0.00;0.00;;;;;;;11.45;71.14;101856.09;6114076;23;20014;-73
2023/05/26 06:03:05;;;;;;;0.00;0.00;;;;;;;11.75;70.27;101868.84;6087449;23;20437;-72
2023/05/26 06:05:31;;;;;;;0.00;0.00;;;;;;;11.91;69.98;101861.78;6110251;23;20013;-73
2023/05/26 06:07:56;;;;;;;0.00;0.00;;;;;;;12.11;69.08;101872.41;6112981;23;20009;-75
2023/05/26 06:10:21;;;;;;;0.00;0.00;;;;;;;12.20;68.91;101877.28;6056137;23;20713;-72
2023/05/26 06:12:47;;;;;;;0.00;0.00;;;;;;;12.27;68.43;101865.34;6106616;23;20006;-73
2023/05/26 06:15:12;;;;;;;0.00;0.00;;;;;;;12.60;68.41;101869.28;6104994;23;20029;-72
2023/05/26 06:17:38;;;;;;;0.00;0.00;;;;;;;13.02;67.26;101878.03;6087638;23;20386;-73
2023/05/26 06:20:04;;;;;;;0.00;0.00;;;;;;;13.24;66.27;101880.94;6082885;23;20466;-73
2023/05/26 06:22:29;;;;;;;0.00;0.00;;;;;;;13.40;65.42;101873.81;6104675;23;20392;-73
2023/05/26 06:24:55;;;;;;;0.00;0.00;;;;;;;13.35;65.01;101864.66;6062782;23;20060;-72
2023/05/26 06:27:20;;;;;;;0.00;0.00;;;;;;;13.34;64.99;101857.44;6102760;23;20096;-72
2023/05/26 06:29:45;;;;;;;0.00;0.00;;;;;;;13.41;64.32;101869.97;6109784;23;20321;-73
2023/05/26 06:32:11;;;;;;;0.00;0.00;;;;;;;13.48;63.77;101868.94;6109736;22;20028;-73
2023/05/26 06:34:36;;;;;;;0.00;0.00;;;;;;;13.48;63.80;101878.03;6089770;23;20013;-73
2023/05/26 06:37:02;;;;;;;0.00;0.00;;;;;;;13.46;63.63;101868.38;6142283;23;20036;-72
2023/05/26 06:39:27;;;;;;;0.00;0.00;;;;;;;13.68;63.21;101872.03;6087940;23;20024;-74
2023/05/26 06:41:53;;;;;;;0.00;0.00;;;;;;;13.89;61.88;101864.09;6118456;23;20020;-75
2023/05/26 06:44:18;;;;;;;0.00;0.00;;;;;;;13.88;61.51;101873.41;6083014;23;20074;-76
2023/05/26 06:46:44;;;;;;;0.00;0.00;;;;;;;13.89;61.54;101875.09;6241618;22;20096;-74
2023/05/26 06:49:12;;;;;;;0.00;0.00;;;;;;;13.91;62.03;101881.16;6118124;23;20013;-76
2023/05/26 06:51:37;;;;;;;0.00;0.00;;;;;;;14.07;62.12;101876.72;6136840;23;20013;-74
2023/05/26 06:54:03;;;;;;;0.00;0.00;;;;;;;14.14;61.34;101877.34;6140471;23;20602;-75
2023/05/26 06:56:28;;;;;;;0.00;0.00;;;;;;;14.24;60.62;101876.66;6240790;22;20009;-77
2023/05/26 06:58:54;;;;;;;0.00;0.00;;;;;;;14.27;60.39;101881.66;6142048;22;20076;-75
2023/05/26 07:01:19;;;;;;;0.00;0.00;;;;;;;14.19;60.39;101884.84;6248495;22;20059;-75
2023/05/26 07:03:45;;;;;;;0.00;0.00;;;;;;;14.30;60.59;101881.16;6135824;23;20006;-74
2023/05/26 07:06:15;;;;;;;0.00;0.00;;;;;;;14.25;59.96;101881.06;6145364;23;20013;-75
2023/05/26 07:08:41;;;;;;;0.00;0.00;;;;;;;14.10;58.99;101882.53;6114421;23;20063;-76
2023/05/26 07:11:07;;;;;;;0.00;0.00;;;;;;;14.05;59.83;101885.22;6090565;23;20017;-77
2023/05/26 07:13:32;;;;;;;0.00;0.00;;;;;;;14.17;59.58;101878.78;6214985;23;20093;-74
2023/05/26 07:15:58;;;;;;;0.00;0.00;;;;;;;14.36;59.45;101891.13;6222588;23;20432;-75
2023/05/26 07:18:23;;;;;;;0.00;0.00;;;;;;;14.60;58.93;101886.19;6116415;23;20139;-74
2023/05/26 07:20:48;;;;;;;0.00;0.00;;;;;;;14.83;58.20;101885.13;6113374;22;20035;-74
2023/05/26 07:23:14;;;;;;;0.00;0.00;;;;;;;14.87;57.21;101879.91;6243320;22;20033;-75
2023/05/26 07:25:39;;;;;;;0.00;0.00;;;;;;;14.81;57.34;101895.53;6135504;23;20386;-75
2023/05/26 07:28:05;;;;;;;0.00;0.00;;;;;;;14.81;57.83;101891.97;6146278;23;20017;-75
2023/05/26 07:30:30;;;;;;;0.00;0.00;;;;;;;14.86;57.07;101893.94;6137383;23;20006;-74
2023/05/26 07:32:56;;;;;;;0.00;0.00;;;;;;;14.84;56.49;101886.75;6090318;23;20459;-75
2023/05/26 07:35:21;;;;;;;0.00;0.00;;;;;;;14.74;56.65;101883.88;6247425;22;20014;-75
2023/05/26 07:37:47;;;;;;;0.00;0.00;;;;;;;14.78;56.37;101885.03;6136645;23;20013;-74
2023/05/26 07:40:12;;;;;;;0.00;0.00;;;;;;;14.83;56.13;101887.88;6143866;23;20380;-74
2023/05/26 07:42:38;;;;;;;0.00;0.00;;;;;;;14.97;56.05;101892.97;6107728;22;20429;-76
2023/05/26 07:45:04;;;;;;;0.00;0.00;;;;;;;14.97;56.40;101887.44;6241958;22;20088;-75
2023/05/26 07:47:31;;;;;;;0.00;0.00;;;;;;;15.19;56.13;101893.72;6218517;23;20067;-74
2023/05/26 07:49:57;;;;;;;0.00;0.00;;;;;;;15.26;55.70;101892.66;6212663;23;20020;-75
2023/05/26 07:52:25;;;;;;;0.00;0.00;;;;;;;15.21;55.42;101892.63;6213791;23;20014;-75
2023/05/26 07:54:52;;;;;;;0.00;0.00;;;;;;;15.09;55.68;101890.84;6233052;22;20009;-76
2023/05/26 07:57:17;;;;;;;0.00;0.00;;;;;;;15.16;55.97;101894.22;6145193;23;20063;-74
2023/05/26 07:59:43;;;;;;;0.00;0.00;;;;;;;15.31;55.62;101895.47;6241887;22;20002;-77
2023/05/26 08:02:11;;;;;;;0.00;0.00;;;;;;;15.20;54.94;101891.81;6115713;23;20013;-77
2023/05/26 08:04:37;;;;;;;0.00;0.00;;;;;;;15.09;54.90;101888.09;6116982;23;20005;-79
2023/05/26 08:07:03;;;;;;;0.00;0.00;;;;;;;15.33;54.76;101893.28;6110093;23;20002;-75
2023/05/26 08:09:28;;;;;;;0.00;0.00;;;;;;;15.47;54.60;101900.00;6240343;22;20009;-76
2023/05/26 08:11:54;;;;;;;0.00;0.00;;;;;;;15.53;53.41;101893.44;6112224;23;20412;-74
2023/05/26 08:14:20;;;;;;;0.00;0.00;;;;;;;15.71;53.42;101888.59;6248021;22;20025;-76
2023/05/26 08:16:45;;;;;;;0.00;0.00;;;;;;;15.81;53.68;101893.41;6089969;23;20444;-77
2023/05/26 08:19:11;;;;;;;0.00;0.00;;;;;;;15.94;53.30;101903.16;6141480;23;20007;-76
2023/05/26 08:21:39;;;;;;;0.00;0.00;;;;;;;16.03;52.78;101896.00;6220454;23;20014;-76
2023/05/26 08:24:04;;;;;;;0.00;0.00;;;;;;;16.12;52.20;101899.94;6114981;23;20408;-77
2023/05/26 08:26:30;;;;;;;0.00;0.00;;;;;;;16.01;51.89;101893.53;6117160;23;20024;-75
2023/05/26 08:28:55;;;;;;;0.00;0.00;;;;;;;15.90;51.96;101863.38;6115893;23;20013;-75
2023/05/26 08:31:21;;;;;;;0.00;0.00;;;;;;;16.04;51.46;101894.94;6117912;23;20054;-76
2023/05/26 08:33:46;;;;;;;0.00;0.00;;;;;;;15.99;51.33;101904.00;6113241;22;20031;-75
2023/05/26 08:36:12;;;;;;;0.00;0.00;;;;;;;16.07;51.09;101891.63;6219255;23;20009;-76
2023/05/26 08:38:37;;;;;;;0.00;0.00;;;;;;;16.25;51.91;101887.56;6119554;23;20020;-76
2023/05/26 08:41:04;;;;;;;0.00;0.00;;;;;;;16.60;51.69;101893.53;6240766;22;20013;-76
2023/05/26 08:43:49;;;;;;;0.00;0.00;;;;;;;16.81;50.66;101884.19;6117053;23;20627;-76
2023/05/26 08:46:14;;;;;;;;;;;;;;;17.04;49.38;101893.09;6141003;23;20112;-76
2023/05/26 08:48:41;;;;;;;0.00;0.00;;;;;;;17.22;49.16;101889.81;6114519;23;20311;-75
2023/05/26 08:51:09;;;;;;;0.00;0.00;;;;;;;17.40;48.01;101902.25;6222985;23;20083;-76
2023/05/26 08:53:36;;;;;;;0.00;0.00;;;;;;;17.36;47.63;101897.56;6111857;23;20097;-75
2023/05/26 08:56:03;;;;;;;0.00;0.00;;;;;;;17.30;47.63;101901.44;6143250;23;20009;-74
2023/05/26 08:58:30;;;;;;;0.00;0.00;;;;;;;17.25;47.10;101905.84;6088322;23;20017;-75
2023/05/26 09:00:57;;;;;;;0.00;0.00;;;;;;;17.09;47.23;101893.13;6116757;23;20427;-74
2023/05/26 09:03:22;;;;;;;0.00;0.00;;;;;;;17.27;47.09;101898.13;6137875;23;20097;-75
2023/05/26 09:05:48;;;;;;;0.00;0.00;;;;;;;17.45;47.40;101898.69;6119462;23;20029;-75
2023/05/26 09:08:14;;;;;;;0.00;0.00;;;;;;;17.33;46.63;101889.81;6089110;23;20504;-75
2023/05/26 09:10:40;;;;;;;0.00;0.00;;;;;;;17.37;46.19;101890.94;6243572;22;20285;-74
2023/05/26 09:13:10;;;;;;;0.00;0.00;;;;;;;17.46;46.01;101886.50;6117720;23;20013;-73
2023/05/26 09:15:37;;;;;;;0.00;0.00;;;;;;;17.50;45.22;101887.59;6107432;23;20009;-73
2023/05/26 09:18:10;;;;;;;0.00;0.00;;;;;;;17.58;44.38;101881.53;6119385;23;20013;-73
2023/05/26 09:20:40;;;;;;;0.00;0.00;;;;;;;17.76;44.79;101884.81;6235568;22;20084;-74
2023/05/26 09:23:05;;;;;;;0.00;0.00;;;;;;;17.80;44.45;101872.91;6119080;22;20016;-75
2023/05/26 09:25:35;;;;;;;0.00;0.00;;;;;;;17.80;45.56;101872.91;6137729;23;20010;-74
2023/05/26 09:28:07;;;;;;;0.00;0.00;;;;;;;17.88;44.99;101874.25;6119727;23;20412;-77
2023/05/26 09:30:44;;;;;;;0.00;0.00;;;;;;;17.87;43.96;101867.09;6111740;23;20005;-74
2023/05/26 09:33:16;;;;;;;0.00;0.00;;;;;;;17.93;43.58;101874.31;6114717;22;20071;-75
2023/05/26 09:35:44;;;;;;;0.00;0.00;;;;;;;17.99;44.04;101879.81;6112527;23;20089;-76
2023/05/26 09:38:11;;;;;;;0.00;0.00;;;;;;;18.09;44.13;101885.31;6115721;23;20005;-77
2023/05/26 09:40:48;;;;;;;0.00;0.00;;;;;;;18.18;43.82;101869.81;6115096;23;20055;-77
2023/05/26 09:43:17;;;;;;;0.00;0.00;;;;;;;18.21;42.90;101882.22;6141667;23;20093;-76
2023/05/26 09:45:42;;;;;;;0.00;0.00;;;;;;;18.37;43.43;101885.75;6141834;23;20033;-77
2023/05/26 09:48:09;;;;;;;0.00;0.00;;;;;;;18.54;42.96;101883.47;6082128;23;20040;-76
2023/05/26 09:50:36;;;;;;;0.00;0.00;;;;;;;18.77;42.08;101881.97;6242482;22;20008;-77
2023/05/26 09:53:10;;;;;;;0.00;0.00;;;;;;;19.50;40.63;101869.25;6112094;23;20028;-75
2023/05/26 09:55:42;;;;;;;0.00;0.00;;;;;;;21.39;38.57;101883.81;6116366;23;20697;-76
2023/05/26 09:58:12;;;;;;;0.00;0.00;;;;;;;23.00;35.84;101877.53;6137587;23;20443;-78
2023/05/26 10:00:42;;;;;;;0.00;0.00;;;;;;;24.02;33.45;101875.22;6219292;23;20010;-78
2023/05/26 10:03:09;;;;;;;0.00;0.00;;;;;;;25.15;32.14;101894.22;6111943;23;20509;-76
2023/05/26 10:05:44;;;;;;;0.00;0.00;;;;;;;25.82;30.76;101883.56;6116240;23;20335;-76
2023/05/26 10:08:11;;;;;;;0.00;0.00;;;;;;;26.45;29.62;101877.34;6115780;23;20006;-78
2023/05/26 10:10:38;;;;;;;0.00;0.00;;;;;;;26.98;28.73;101884.25;6114184;23;20017;-78
2023/05/26 10:13:06;;;;;;;0.00;0.00;;;;;;;27.52;27.96;101885.38;6220181;23;20009;-75
2023/05/26 10:15:33;;;;;;;0.00;0.00;;;;;;;27.92;27.41;101879.16;6113927;23;20017;-75
2023/05/26 10:18:00;;;;;;;0.00;0.00;;;;;;;28.43;26.97;101875.16;6249215;22;20036;-77
2023/05/26 10:20:26;;;;;;;0.00;0.00;;;;;;;28.71;26.26;101878.91;6137195;22;21041;-76
2023/05/26 10:23:01;;;;;;;0.00;0.00;;;;;;;28.93;25.02;101868.28;6120484;23;20009;-77
2023/05/26 10:25:30;;;;;;;0.00;0.00;;;;;;;29.89;24.77;101876.94;6139402;23;20378;-77
2023/05/26 10:28:13;;;;;;;0.00;0.00;;;;;;;30.97;23.13;101863.31;6117062;23;20009;-75
2023/05/26 10:30:41;;;;;;;0.00;0.00;;;;;;;31.33;22.91;101872.50;6109485;23;20976;-74
2023/05/26 10:33:08;;;;;;;0.00;0.00;;;;;;;32.15;21.91;101865.88;6116943;22;20026;-76
2023/05/26 10:35:35;;;;;;;0.00;0.00;;;;;;;32.77;21.55;101861.91;6140163;23;20006;-75
2023/05/26 10:38:03;;;;;;;0.00;0.00;;;;;;;33.29;20.80;101867.81;6096441;23;20013;-77
2023/05/26 10:41:04;;;;;;;0.00;0.00;;;;;;;34.07;19.95;101858.41;6116254;23;20009;-77
2023/05/26 10:43:30;;;;;;;0.00;0.00;;;;;;;34.29;19.42;101858.56;6122287;23;20006;-78
2023/05/26 10:46:00;;;;;;;0.00;0.00;;;;;;;34.29;19.42;101862.25;6092336;23;20013;-75
2023/05/26 10:48:36;;;;;;;0.00;0.00;;;;;;;35.26;19.11;101853.31;6117069;23;20209;-75
2023/05/26 10:51:02;;;;;;;0.00;0.00;;;;;;;35.74;18.34;101858.66;6144302;23;20008;-77
2023/05/26 10:53:36;;;;;;;0.00;0.00;;;;;;;36.31;17.66;101854.16;6114348;23;20014;-77
2023/05/26 10:56:03;;;;;;;0.00;0.00;;;;;;;36.51;16.92;101841.09;6142902;23;20035;-76
2023/05/26 10:58:29;;;;;;;0.00;0.00;;;;;;;36.47;16.39;101845.19;6214884;23;20328;-76
2023/05/26 11:01:02;;;;;;;0.00;0.00;;;;;;;36.89;17.00;101849.09;6120822;23;20005;-75
2023/05/26 11:03:42;;;;;;;0.00;0.00;;;;;;;37.25;15.97;101848.06;6116172;23;20083;-73
2023/05/26 11:06:10;;;;;;;0.00;0.00;;;;;;;37.12;16.12;101842.03;6146948;23;20001;-74
2023/05/26 11:08:48;;;;;;;0.00;0.00;;;;;;;38.04;15.75;101845.41;6112207;23;20021;-75
2023/05/26 11:11:27;;;;;;;0.00;0.00;;;;;;;38.79;15.55;101845.00;6111832;23;20001;-74
2023/05/26 11:14:02;;;;;;;0.00;0.00;;;;;;;39.20;14.46;101838.31;6133487;23;20006;-74
2023/05/26 11:16:34;;;;;;;0.00;0.00;;;;;;;38.60;15.09;101838.69;6142712;23;20012;-75
2023/05/26 11:19:02;;;;;;;0.00;0.00;;;;;;;39.23;14.60;101841.13;6104386;23;20009;-74
2023/05/26 11:21:29;;;;;;;0.00;0.00;;;;;;;40.18;14.39;101828.91;6138480;23;20042;-75
2023/05/26 11:23:57;;;;;;;0.00;0.00;;;;;;;40.96;13.38;101829.31;6136793;23;20002;-75
2023/05/26 11:26:24;;;;;;;0.00;0.00;;;;;;;40.91;12.59;101834.78;6112419;23;20435;-74
2023/05/26 11:28:50;;;;;;;0.00;0.00;;;;;;;41.63;12.62;101833.03;6115113;23;20050;-76